createdAt,value
2022-11-05T00:00:58.590Z,101204.72
2022-11-05T00:02:18.826Z,101200.50
2022-11-05T00:03:38.812Z,101202.50
2022-11-05T00:04:59.364Z,101203.53
2022-11-05T00:06:19.886Z,101193.75
2022-11-05T00:07:51.204Z,101191.41
2022-11-05T00:09:11.356Z,101196.59
2022-11-05T00:10:24.184Z,101194.09
2022-11-05T00:11:45.888Z,101198.16
2022-11-05T00:13:06.328Z,101173.03
2022-11-05T00:14:26.877Z,101196.47
2022-11-05T00:15:47.030Z,101190.34
2022-11-05T00:16:48.780Z,101185.97
2022-11-05T00:17:50.514Z,101190.22
2022-11-05T00:19:06.960Z,101193.41
2022-11-05T00:20:11.114Z,101187.00
2022-11-05T00:21:31.137Z,101186.31
2022-11-05T00:22:51.347Z,101189.69
2022-11-05T00:24:11.318Z,101188.69
2022-11-05T00:25:19.482Z,101183.28
2022-11-05T00:26:21.281Z,101168.47
2022-11-05T00:27:23.023Z,101187.66
2022-11-05T00:28:27.130Z,101188.00
2022-11-05T00:29:29.520Z,101188.34
2022-11-05T00:30:32.418Z,101184.78
2022-11-05T00:31:34.080Z,101184.97
2022-11-05T00:32:35.774Z,101179.72
2022-11-05T00:33:42.206Z,101171.81
2022-11-05T00:34:43.946Z,101181.59
2022-11-05T00:35:45.773Z,101175.34
2022-11-05T00:36:47.529Z,101174.53
2022-11-05T00:37:50.557Z,101178.22
2022-11-05T00:38:52.563Z,101174.69
2022-11-05T00:39:54.358Z,101161.19
2022-11-05T00:40:56.485Z,101159.38
2022-11-05T00:42:16.392Z,101175.88
2022-11-05T00:43:36.599Z,101174.34
2022-11-05T00:44:56.897Z,101173.34
2022-11-05T00:45:58.886Z,101171.50
2022-11-05T00:47:20.569Z,101178.22
2022-11-05T00:48:41.361Z,101172.50
2022-11-05T00:49:43.057Z,101178.91
2022-11-05T00:50:44.790Z,101182.94
2022-11-05T00:51:46.470Z,101172.50
2022-11-05T00:52:56.227Z,101179.72
2022-11-05T00:53:57.909Z,101183.28
2022-11-05T00:54:59.637Z,101184.44
2022-11-05T00:56:02.257Z,101169.09
2022-11-05T00:57:04.855Z,101198.25
2022-11-05T00:58:12.414Z,101185.78
2022-11-05T00:59:14.097Z,101183.78
2022-11-05T01:00:16.341Z,101181.25
2022-11-05T01:01:18.233Z,101184.97
2022-11-05T01:02:20.228Z,101177.38
2022-11-05T01:03:28.084Z,101181.56
2022-11-05T01:04:29.926Z,101174.34
2022-11-05T01:05:33.980Z,101176.19
2022-11-05T01:06:35.817Z,101179.88
2022-11-05T01:07:37.637Z,101174.50
2022-11-05T01:08:40.716Z,101171.97
2022-11-05T01:09:42.455Z,101167.41
2022-11-05T01:10:48.974Z,101176.50
2022-11-05T01:11:51.425Z,101163.03
2022-11-05T01:12:53.630Z,101175.69
2022-11-05T01:13:55.385Z,101173.13
2022-11-05T01:14:57.134Z,101177.53
2022-11-05T01:16:06.053Z,101173.13
2022-11-05T01:17:07.767Z,101171.31
2022-11-05T01:18:09.953Z,101173.81
2022-11-05T01:19:12.465Z,101172.31
2022-11-05T01:20:14.745Z,101171.44
2022-11-05T01:21:16.429Z,101153.38
2022-11-05T01:22:18.161Z,101180.56
2022-11-05T01:23:20.477Z,101175.16
2022-11-05T01:24:22.572Z,101168.09
2022-11-05T01:25:24.442Z,101172.66
2022-11-05T01:26:26.928Z,101157.81
2022-11-05T01:27:28.614Z,101158.31
2022-11-05T01:28:30.427Z,101153.25
2022-11-05T01:29:32.284Z,101161.00
2022-11-05T01:30:34.047Z,101158.50
2022-11-05T01:31:35.792Z,101149.22
2022-11-05T01:32:38.012Z,101146.03
2022-11-05T01:33:39.674Z,101162.19
2022-11-05T01:34:41.362Z,101142.47
2022-11-05T01:35:43.552Z,101155.94
2022-11-05T01:36:45.251Z,101118.53
2022-11-05T01:37:47.264Z,101156.97
2022-11-05T01:38:49.262Z,101154.28
2022-11-05T01:39:51.008Z,101151.56
2022-11-05T01:40:53.341Z,101151.75
2022-11-05T01:41:55.038Z,101151.75
2022-11-05T01:42:56.735Z,101135.59
2022-11-05T01:43:59.876Z,101150.06
2022-11-05T01:45:14.132Z,101145.50
2022-11-05T01:46:20.036Z,101145.34
2022-11-05T01:47:50.124Z,101139.28
2022-11-05T01:48:58.709Z,101142.00
2022-11-05T01:50:17.682Z,101142.00
2022-11-05T01:51:25.279Z,101134.91
2022-11-05T01:52:30.794Z,101138.44
2022-11-05T01:53:42.032Z,101138.09
2022-11-05T01:54:44.665Z,101130.00
2022-11-05T01:55:56.707Z,101123.91
2022-11-05T01:57:11.199Z,101129.88
2022-11-05T01:58:20.192Z,101131.66
2022-11-05T01:59:37.072Z,101133.72
2022-11-05T02:00:41.158Z,101135.41
2022-11-05T02:01:42.995Z,101130.34
2022-11-05T02:02:45.434Z,101142.13
2022-11-05T02:03:49.714Z,101141.09
2022-11-05T02:04:57.662Z,101139.06
2022-11-05T02:06:01.396Z,101139.22
2022-11-05T02:07:09.593Z,101145.13
2022-11-05T02:08:18.810Z,101147.00
2022-11-05T02:09:34.783Z,101145.81
2022-11-05T02:10:36.649Z,101153.06
2022-11-05T02:11:38.726Z,101153.22
2022-11-05T02:12:44.661Z,101138.88
2022-11-05T02:13:47.916Z,101156.25
2022-11-05T02:14:49.689Z,101149.00
2022-11-05T02:16:12.012Z,101151.19
2022-11-05T02:17:35.121Z,101142.44
2022-11-05T02:18:59.900Z,101150.91
2022-11-05T02:20:42.437Z,101139.63
2022-11-05T02:22:12.178Z,101138.44
2022-11-05T02:23:22.645Z,101138.78
2022-11-05T02:25:02.341Z,101143.50
2022-11-05T02:26:34.021Z,101138.09
2022-11-05T02:28:12.381Z,101139.78
2022-11-05T02:29:32.905Z,101143.00
2022-11-05T02:30:42.401Z,101149.22
2022-11-05T02:32:05.440Z,101143.31
2022-11-05T02:33:17.425Z,101145.81
2022-11-05T02:35:04.467Z,101135.88
2022-11-05T02:36:09.142Z,101136.75
2022-11-05T02:37:22.758Z,101139.91
2022-11-05T02:38:47.984Z,101132.66
2022-11-05T02:39:58.655Z,101133.53
2022-11-05T02:41:29.477Z,101116.84
2022-11-05T02:43:03.566Z,101123.94
2022-11-05T02:44:26.754Z,101115.19
2022-11-05T02:45:31.114Z,101117.50
2022-11-05T02:46:38.447Z,101123.38
2022-11-05T02:47:58.851Z,101125.06
2022-11-05T02:49:19.253Z,101116.66
2022-11-05T02:50:34.149Z,101107.06
2022-11-05T02:51:53.918Z,101108.22
2022-11-05T02:52:58.381Z,101107.41
2022-11-05T02:54:21.275Z,101108.56
2022-11-05T02:55:30.429Z,101113.81
2022-11-05T02:56:44.957Z,101102.03
2022-11-05T02:57:47.854Z,101093.94
2022-11-05T02:58:49.632Z,101115.16
2022-11-05T03:00:39.934Z,101108.22
2022-11-05T03:01:45.185Z,101107.06
2022-11-05T03:02:47.197Z,101112.78
2022-11-05T03:03:53.718Z,101109.75
2022-11-05T03:04:55.513Z,101113.47
2022-11-05T03:06:29.133Z,101111.09
2022-11-05T03:07:47.804Z,101110.78
2022-11-05T03:09:27.263Z,101102.50
2022-11-05T03:10:58.020Z,101097.50
2022-11-05T03:12:18.445Z,101103.03
2022-11-05T03:13:51.211Z,101094.94
2022-11-05T03:15:20.789Z,101102.19
2022-11-05T03:16:28.504Z,101081.47
2022-11-05T03:17:40.724Z,101102.34
2022-11-05T03:19:00.969Z,101098.66
2022-11-05T03:20:11.723Z,101103.38
2022-11-05T03:21:36.929Z,101107.91
2022-11-05T03:22:49.449Z,101109.09
2022-11-05T03:24:02.721Z,101120.53
2022-11-05T03:25:12.452Z,101121.53
2022-11-05T03:26:33.635Z,101110.59
2022-11-05T03:27:40.853Z,101095.63
2022-11-05T03:28:46.425Z,101093.94
2022-11-05T03:29:53.468Z,101105.03
2022-11-05T03:30:57.932Z,101097.59
2022-11-05T03:32:03.203Z,101102.69
2022-11-05T03:33:12.324Z,101109.91
2022-11-05T03:34:18.542Z,101092.53
2022-11-05T03:35:26.977Z,101107.06
2022-11-05T03:36:34.383Z,101056.34
2022-11-05T03:37:39.874Z,101088.34
2022-11-05T03:38:45.143Z,101098.13
2022-11-05T03:39:51.373Z,101086.53
2022-11-05T03:40:57.170Z,101075.72
2022-11-05T03:42:02.081Z,101088.34
2022-11-05T03:43:08.220Z,101087.50
2022-11-05T03:44:15.002Z,101085.81
2022-11-05T03:45:33.696Z,101084.66
2022-11-05T03:46:41.929Z,101075.56
2022-11-05T03:47:47.523Z,101076.72
2022-11-05T03:48:53.574Z,101081.97
2022-11-05T03:49:55.274Z,101090.91
2022-11-05T03:51:07.999Z,101076.91
2022-11-05T03:52:17.997Z,101070.50
2022-11-05T03:53:26.132Z,101078.44
2022-11-05T03:54:28.473Z,101075.75
2022-11-05T03:55:38.563Z,101078.75
2022-11-05T03:56:44.888Z,101071.00
2022-11-05T03:57:52.292Z,101066.81
2022-11-05T03:58:58.937Z,101067.81
2022-11-05T04:00:01.100Z,101082.97
2022-11-05T04:01:05.369Z,101077.06
2022-11-05T04:02:07.408Z,101079.75
2022-11-05T04:03:09.682Z,101066.94
2022-11-05T04:04:11.567Z,101078.06
2022-11-05T04:05:13.626Z,101079.06
2022-11-05T04:06:33.653Z,101065.25
2022-11-05T04:07:54.024Z,101080.44
2022-11-05T04:09:14.187Z,101079.28
2022-11-05T04:10:34.560Z,101080.94
2022-11-05T04:11:55.584Z,101084.66
2022-11-05T04:13:15.709Z,101088.03
2022-11-05T04:14:17.485Z,101083.50
2022-11-05T04:15:19.309Z,101081.28
2022-11-05T04:16:39.649Z,101086.16
2022-11-05T04:17:41.417Z,101079.59
2022-11-05T04:18:43.468Z,101073.69
2022-11-05T04:20:04.291Z,101074.19
2022-11-05T04:21:26.036Z,101075.72
2022-11-05T04:22:48.638Z,101085.00
2022-11-05T04:24:08.974Z,101082.63
2022-11-05T04:25:11.705Z,101087.50
2022-11-05T04:26:13.659Z,101096.09
2022-11-05T04:27:15.453Z,101092.72
2022-11-05T04:28:17.730Z,101093.88
2022-11-05T04:29:37.929Z,101088.69
2022-11-05T04:30:40.109Z,101074.53
2022-11-05T04:31:41.795Z,101078.59
2022-11-05T04:32:43.485Z,101087.66
2022-11-05T04:33:45.246Z,101085.13
2022-11-05T04:34:47.003Z,101084.31
2022-11-05T04:35:49.353Z,101088.81
2022-11-05T04:36:53.230Z,101089.84
2022-11-05T04:37:55.063Z,101079.94
2022-11-05T04:38:56.748Z,101078.91
2022-11-05T04:39:58.550Z,101076.03
2022-11-05T04:41:13.954Z,101078.72
2022-11-05T04:42:15.824Z,101081.28
2022-11-05T04:43:19.745Z,101077.03
2022-11-05T04:44:21.663Z,101086.81
2022-11-05T04:45:24.928Z,101084.31
2022-11-05T04:46:26.712Z,101071.66
2022-11-05T04:47:28.408Z,101063.91
2022-11-05T04:48:30.140Z,101089.69
2022-11-05T04:49:31.837Z,101085.31
2022-11-05T04:50:33.642Z,101083.63
2022-11-05T04:51:35.325Z,101071.00
2022-11-05T04:52:37.105Z,101066.59
2022-11-05T04:53:38.826Z,101082.63
2022-11-05T04:54:40.543Z,101055.13
2022-11-05T04:55:42.196Z,101093.38
2022-11-05T04:56:44.148Z,101090.84
2022-11-05T04:57:49.806Z,101077.91
2022-11-05T04:58:52.269Z,101058.84
2022-11-05T04:59:55.222Z,101082.63
2022-11-05T05:00:57.007Z,101090.16
2022-11-05T05:01:58.903Z,101091.72
2022-11-05T05:03:00.761Z,101092.53
2022-11-05T05:04:02.626Z,101098.94
2022-11-05T05:05:04.839Z,101093.53
2022-11-05T05:06:07.305Z,101087.16
2022-11-05T05:07:09.006Z,101091.72
2022-11-05T05:08:10.750Z,101087.31
2022-11-05T05:09:12.537Z,101096.22
2022-11-05T05:10:14.255Z,101092.72
2022-11-05T05:11:18.817Z,101072.81
2022-11-05T05:12:21.687Z,101094.22
2022-11-05T05:13:23.456Z,101089.84
2022-11-05T05:14:25.261Z,101088.16
2022-11-05T05:15:26.994Z,101091.72
2022-11-05T05:16:28.878Z,101087.16
2022-11-05T05:17:30.693Z,101084.09
2022-11-05T05:18:32.919Z,101077.91
2022-11-05T05:19:54.548Z,101094.53
2022-11-05T05:21:18.448Z,101083.44
2022-11-05T05:22:20.161Z,101073.69
2022-11-05T05:23:21.910Z,101077.38
2022-11-05T05:24:25.071Z,101085.13
2022-11-05T05:25:26.837Z,101087.81
2022-11-05T05:26:29.004Z,101085.47
2022-11-05T05:27:31.464Z,101085.47
2022-11-05T05:28:33.408Z,101077.38
2022-11-05T05:29:35.136Z,101078.19
2022-11-05T05:30:36.917Z,101083.09
2022-11-05T05:31:39.322Z,101086.47
2022-11-05T05:32:40.989Z,101074.34
2022-11-05T05:33:42.717Z,101083.78
2022-11-05T05:34:44.387Z,101070.28
2022-11-05T05:35:46.089Z,101084.78
2022-11-05T05:36:47.846Z,101081.25
2022-11-05T05:37:49.649Z,101076.88
2022-11-05T05:38:51.568Z,101074.19
2022-11-05T05:39:53.716Z,101078.72
2022-11-05T05:40:59.402Z,101074.19
2022-11-05T05:42:01.074Z,101073.53
2022-11-05T05:43:02.846Z,101076.69
2022-11-05T05:44:06.077Z,101066.78
2022-11-05T05:45:07.886Z,101068.63
2022-11-05T05:46:14.732Z,101052.13
2022-11-05T05:47:16.480Z,101073.00
2022-11-05T05:48:18.141Z,101065.94
2022-11-05T05:49:19.818Z,101067.63
2022-11-05T05:50:21.706Z,101076.88
2022-11-05T05:51:26.929Z,101075.88
2022-11-05T05:52:28.620Z,101052.28
2022-11-05T05:53:31.268Z,101059.03
2022-11-05T05:54:37.069Z,101074.34
2022-11-05T05:55:41.525Z,101075.88
2022-11-05T05:56:44.471Z,101061.75
2022-11-05T05:57:46.166Z,101065.25
2022-11-05T05:58:48.175Z,101072.50
2022-11-05T05:59:49.880Z,101065.25
2022-11-05T06:00:51.658Z,101063.22
2022-11-05T06:01:53.510Z,101077.03
2022-11-05T06:02:56.043Z,101072.50
2022-11-05T06:03:57.897Z,101084.28
2022-11-05T06:04:59.633Z,101059.88
2022-11-05T06:06:09.413Z,101067.59
2022-11-05T06:07:11.145Z,101063.75
2022-11-05T06:08:12.925Z,101073.34
2022-11-05T06:09:15.281Z,101071.66
2022-11-05T06:10:17.060Z,101078.91
2022-11-05T06:11:18.783Z,101050.94
2022-11-05T06:12:20.501Z,101069.97
2022-11-05T06:13:22.195Z,101070.81
2022-11-05T06:14:23.910Z,101075.34
2022-11-05T06:15:25.723Z,101069.13
2022-11-05T06:16:28.589Z,101054.47
2022-11-05T06:17:30.252Z,101069.97
2022-11-05T06:18:32.777Z,101055.16
2022-11-05T06:19:34.452Z,101054.66
2022-11-05T06:20:36.173Z,101053.00
2022-11-05T06:21:38.014Z,101052.13
2022-11-05T06:22:39.741Z,101057.50
2022-11-05T06:23:43.029Z,101068.28
2022-11-05T06:24:44.885Z,101055.69
2022-11-05T06:25:46.608Z,101044.72
2022-11-05T06:26:48.286Z,101055.69
2022-11-05T06:27:50.012Z,101047.75
2022-11-05T06:28:51.669Z,101061.06
2022-11-05T06:29:53.611Z,101050.44
2022-11-05T06:30:56.201Z,101058.53
2022-11-05T06:31:57.878Z,101062.91
2022-11-05T06:33:04.477Z,101058.53
2022-11-05T06:34:06.201Z,101059.19
2022-11-05T06:35:08.237Z,101065.59
2022-11-05T06:36:15.076Z,101073.66
2022-11-05T06:37:16.745Z,101061.88
2022-11-05T06:38:18.534Z,101065.59
2022-11-05T06:39:20.219Z,101061.88
2022-11-05T06:40:21.944Z,101050.94
2022-11-05T06:41:23.705Z,101072.81
2022-11-05T06:42:25.731Z,101067.44
2022-11-05T06:43:28.235Z,101051.28
2022-11-05T06:44:29.925Z,101059.34
2022-11-05T06:45:31.745Z,101043.72
2022-11-05T06:46:33.607Z,101050.09
2022-11-05T06:47:35.339Z,101051.44
2022-11-05T06:48:37.334Z,101062.22
2022-11-05T06:49:39.036Z,101048.75
2022-11-05T06:50:44.137Z,101037.47
2022-11-05T06:51:45.809Z,101061.22
2022-11-05T06:52:56.230Z,101046.88
2022-11-05T06:53:57.898Z,101052.78
2022-11-05T06:54:59.668Z,101031.91
2022-11-05T06:56:05.821Z,101044.72
2022-11-05T06:57:09.927Z,101055.81
2022-11-05T06:58:11.693Z,101064.91
2022-11-05T06:59:13.469Z,101062.22
2022-11-05T07:00:15.660Z,101051.59
2022-11-05T07:01:17.595Z,101053.47
2022-11-05T07:02:19.498Z,101050.78
2022-11-05T07:03:21.279Z,101065.06
2022-11-05T07:04:23.080Z,101056.16
2022-11-05T07:05:24.881Z,101053.47
2022-11-05T07:06:27.242Z,101044.53
2022-11-05T07:07:29.312Z,101039.13
2022-11-05T07:08:32.681Z,101032.25
2022-11-05T07:09:34.575Z,101036.63
2022-11-05T07:10:36.317Z,101046.22
2022-11-05T07:11:38.022Z,101044.53
2022-11-05T07:12:39.739Z,101038.50
2022-11-05T07:13:41.510Z,101046.41
2022-11-05T07:14:43.253Z,101031.59
2022-11-05T07:15:45.567Z,101047.75
2022-11-05T07:16:47.283Z,101045.59
2022-11-05T07:17:49.093Z,101038.34
2022-11-05T07:18:52.886Z,101036.66
2022-11-05T07:19:54.646Z,101034.31
2022-11-05T07:20:56.416Z,101046.13
2022-11-05T07:21:58.156Z,101036.66
2022-11-05T07:23:08.473Z,101028.94
2022-11-05T07:24:10.486Z,101047.63
2022-11-05T07:25:12.185Z,101039.38
2022-11-05T07:26:14.370Z,101040.88
2022-11-05T07:27:17.295Z,101040.41
2022-11-05T07:28:19.055Z,101045.44
2022-11-05T07:29:20.794Z,101029.94
2022-11-05T07:30:22.557Z,101028.97
2022-11-05T07:31:24.256Z,101032.00
2022-11-05T07:32:25.970Z,101022.41
2022-11-05T07:33:32.335Z,101033.19
2022-11-05T07:34:37.033Z,101027.25
2022-11-05T07:35:38.713Z,101029.28
2022-11-05T07:36:40.473Z,101032.00
2022-11-05T07:37:46.597Z,101042.44
2022-11-05T07:38:48.336Z,101035.69
2022-11-05T07:39:50.059Z,101040.75
2022-11-05T07:40:51.786Z,101044.13
2022-11-05T07:41:55.006Z,101044.78
2022-11-05T07:42:59.434Z,101041.06
2022-11-05T07:44:01.190Z,101032.28
2022-11-05T07:45:03.157Z,101001.81
2022-11-05T07:46:07.565Z,101040.03
2022-11-05T07:47:11.587Z,101032.63
2022-11-05T07:48:13.245Z,101035.97
2022-11-05T07:49:14.913Z,101032.94
2022-11-05T07:50:18.573Z,101032.13
2022-11-05T07:51:20.366Z,101029.41
2022-11-05T07:52:22.029Z,101029.75
2022-11-05T07:53:23.708Z,101017.94
2022-11-05T07:54:26.682Z,101031.22
2022-11-05T07:55:28.929Z,100991.19
2022-11-05T07:56:30.899Z,101028.22
2022-11-05T07:57:32.582Z,101028.03
2022-11-05T07:58:36.945Z,101023.50
2022-11-05T07:59:38.614Z,101026.84
2022-11-05T08:00:40.695Z,101029.38
2022-11-05T08:01:42.579Z,101027.53
2022-11-05T08:02:44.721Z,101028.34
2022-11-05T08:03:46.704Z,101031.72
2022-11-05T08:04:48.424Z,101014.72
2022-11-05T08:05:50.202Z,101020.75
2022-11-05T08:06:52.305Z,101018.06
2022-11-05T08:07:55.367Z,101024.28
2022-11-05T08:08:57.135Z,101024.16
2022-11-05T08:09:58.917Z,101006.09
2022-11-05T08:11:05.193Z,101016.91
2022-11-05T08:12:07.306Z,101003.06
2022-11-05T08:13:09.976Z,101009.66
2022-11-05T08:14:12.021Z,101007.97
2022-11-05T08:15:13.782Z,101011.34
2022-11-05T08:16:16.255Z,101000.00
2022-11-05T08:17:18.670Z,101014.34
2022-11-05T08:18:20.447Z,101029.38
2022-11-05T08:19:22.325Z,101013.19
2022-11-05T08:20:24.065Z,101021.06
2022-11-05T08:21:25.825Z,101014.66
2022-11-05T08:22:27.486Z,101019.91
2022-11-05T08:23:30.673Z,101012.63
2022-11-05T08:24:32.474Z,101017.88
2022-11-05T08:25:34.306Z,101020.38
2022-11-05T08:26:36.042Z,101005.41
2022-11-05T08:27:38.476Z,100996.13
2022-11-05T08:28:40.161Z,101016.50
2022-11-05T08:29:41.953Z,101013.28
2022-11-05T08:30:43.644Z,101020.03
2022-11-05T08:31:45.470Z,101012.78
2022-11-05T08:32:47.165Z,100996.78
2022-11-05T08:33:48.905Z,101010.91
2022-11-05T08:34:50.708Z,101013.59
2022-11-05T08:35:52.467Z,101011.75
2022-11-05T08:36:54.203Z,101013.44
2022-11-05T08:38:00.782Z,101015.47
2022-11-05T08:39:02.507Z,101017.63
2022-11-05T08:40:04.532Z,101008.75
2022-11-05T08:41:06.537Z,101016.81
2022-11-05T08:42:08.278Z,101017.63
2022-11-05T08:43:12.071Z,101015.28
2022-11-05T08:44:14.126Z,101007.84
2022-11-05T08:45:15.815Z,101013.25
2022-11-05T08:46:17.625Z,101009.53
2022-11-05T08:47:19.341Z,101001.44
2022-11-05T08:48:21.137Z,101009.38
2022-11-05T08:49:22.895Z,101004.16
2022-11-05T08:50:24.629Z,101006.84
2022-11-05T08:51:26.344Z,101002.31
2022-11-05T08:52:28.030Z,101003.13
2022-11-05T08:53:29.729Z,101002.66
2022-11-05T08:54:31.477Z,101004.16
2022-11-05T08:55:33.338Z,101000.44
2022-11-05T08:56:35.070Z,101001.44
2022-11-05T08:57:36.849Z,101005.16
2022-11-05T08:58:38.596Z,101001.63
2022-11-05T08:59:40.261Z,101001.44
2022-11-05T09:00:43.663Z,101007.03
2022-11-05T09:01:45.597Z,100985.28
2022-11-05T09:02:47.386Z,100999.94
2022-11-05T09:03:52.059Z,100996.75
2022-11-05T09:04:53.904Z,100988.50
2022-11-05T09:05:55.618Z,100994.38
2022-11-05T09:06:57.364Z,100988.97
2022-11-05T09:08:01.439Z,100995.22
2022-11-05T09:09:03.725Z,100992.34
2022-11-05T09:10:05.865Z,100983.41
2022-11-05T09:11:07.701Z,100982.91
2022-11-05T09:12:13.196Z,100988.81
2022-11-05T09:13:19.367Z,100992.34
2022-11-05T09:14:21.622Z,100982.41
2022-11-05T09:15:24.503Z,100977.81
2022-11-05T09:16:27.052Z,100979.84
2022-11-05T09:17:28.969Z,100980.72
2022-11-05T09:18:31.092Z,100983.41
2022-11-05T09:19:36.617Z,100974.66
2022-11-05T09:20:41.914Z,100966.72
2022-11-05T09:21:43.630Z,100974.28
2022-11-05T09:22:46.335Z,100977.00
2022-11-05T09:23:48.313Z,100973.44
2022-11-05T09:24:50.030Z,100982.56
2022-11-05T09:25:51.773Z,100979.84
2022-11-05T09:26:53.521Z,100968.22
2022-11-05T09:28:17.048Z,100975.13
2022-11-05T09:29:19.207Z,100970.22
2022-11-05T09:30:20.948Z,100966.84
2022-11-05T09:31:22.715Z,100961.63
2022-11-05T09:32:24.466Z,100962.66
2022-11-05T09:33:28.077Z,100969.06
2022-11-05T09:34:29.886Z,100957.44
2022-11-05T09:35:31.608Z,100959.47
2022-11-05T09:36:33.345Z,100965.69
2022-11-05T09:37:36.909Z,100967.38
2022-11-05T09:38:38.584Z,100955.56
2022-11-05T09:39:40.269Z,100958.25
2022-11-05T09:41:08.672Z,100966.34
2022-11-05T09:42:16.823Z,100956.72
2022-11-05T09:43:26.073Z,100960.44
2022-11-05T09:44:47.663Z,100956.91
2022-11-05T09:45:52.997Z,100953.88
2022-11-05T09:46:59.546Z,100955.03
2022-11-05T09:48:08.624Z,100954.22
2022-11-05T09:49:24.816Z,100949.50
2022-11-05T09:50:34.953Z,100942.41
2022-11-05T09:51:37.234Z,100943.44
2022-11-05T09:52:39.007Z,100939.56
2022-11-05T09:53:41.474Z,100942.06
2022-11-05T09:54:43.361Z,100935.00
2022-11-05T09:55:55.144Z,100937.03
2022-11-05T09:56:57.735Z,100938.34
2022-11-05T09:58:03.006Z,100936.69
2022-11-05T09:59:24.846Z,100937.53
2022-11-05T10:00:26.705Z,100938.03
2022-11-05T10:01:33.814Z,100919.47
2022-11-05T10:02:45.816Z,100934.84
2022-11-05T10:03:51.878Z,100933.81
2022-11-05T10:04:58.252Z,100933.97
2022-11-05T10:06:08.701Z,100922.53
2022-11-05T10:07:16.368Z,100923.03
2022-11-05T10:08:27.414Z,100928.59
2022-11-05T10:09:51.509Z,100924.53
2022-11-05T10:11:03.977Z,100938.84
2022-11-05T10:12:17.105Z,100929.94
2022-11-05T10:13:29.261Z,100929.75
2022-11-05T10:14:36.569Z,100928.22
2022-11-05T10:15:46.365Z,100933.81
2022-11-05T10:17:00.631Z,100927.22
2022-11-05T10:18:21.786Z,100930.75
2022-11-05T10:19:39.540Z,100928.91
2022-11-05T10:20:42.982Z,100920.81
2022-11-05T10:22:05.398Z,100928.22
2022-11-05T10:23:21.719Z,100918.13
2022-11-05T10:24:23.472Z,100926.22
2022-11-05T10:25:30.564Z,100928.59
2022-11-05T10:26:32.292Z,100924.88
2022-11-05T10:27:37.683Z,100920.69
2022-11-05T10:28:39.473Z,100929.59
2022-11-05T10:29:43.301Z,100906.59
2022-11-05T10:30:48.357Z,100911.63
2022-11-05T10:31:53.049Z,100910.75
2022-11-05T10:32:58.682Z,100924.41
2022-11-05T10:34:03.867Z,100911.72
2022-11-05T10:35:07.846Z,100921.50
2022-11-05T10:36:20.285Z,100918.81
2022-11-05T10:37:24.041Z,100914.25
2022-11-05T10:38:25.742Z,100911.56
2022-11-05T10:39:27.978Z,100913.41
2022-11-05T10:40:42.201Z,100911.72
2022-11-05T10:42:02.492Z,100915.09
2022-11-05T10:43:10.907Z,100907.84
2022-11-05T10:44:36.509Z,100912.72
2022-11-05T10:46:30.385Z,100903.25
2022-11-05T10:47:53.594Z,100912.00
2022-11-05T10:49:11.332Z,100881.38
2022-11-05T10:50:18.481Z,100909.81
2022-11-05T10:51:20.212Z,100911.03
2022-11-05T10:52:38.513Z,100917.63
2022-11-05T10:54:00.348Z,100913.06
2022-11-05T10:55:21.025Z,100909.34
2022-11-05T10:56:31.848Z,100911.88
2022-11-05T10:57:39.453Z,100911.22
2022-11-05T10:58:55.177Z,100906.63
2022-11-05T11:00:23.758Z,100910.03
2022-11-05T11:01:26.410Z,100910.03
2022-11-05T11:02:30.323Z,100915.09
2022-11-05T11:03:43.372Z,100902.63
2022-11-05T11:04:52.427Z,100907.19
2022-11-05T11:06:12.247Z,100905.31
2022-11-05T11:07:22.025Z,100901.44
2022-11-05T11:08:25.214Z,100910.72
2022-11-05T11:09:30.578Z,100902.81
2022-11-05T11:10:40.830Z,100906.69
2022-11-05T11:11:43.009Z,100905.50
2022-11-05T11:12:44.786Z,100913.75
2022-11-05T11:13:51.437Z,100907.72
2022-11-05T11:15:05.553Z,100905.66
2022-11-05T11:16:16.812Z,100894.56
2022-11-05T11:17:30.815Z,100905.31
2022-11-05T11:18:41.970Z,100899.25
2022-11-05T11:19:43.948Z,100904.50
2022-11-05T11:20:46.771Z,100905.00
2022-11-05T11:22:13.128Z,100907.00
2022-11-05T11:23:16.377Z,100898.91
2022-11-05T11:24:23.351Z,100902.97
2022-11-05T11:25:27.880Z,100889.19
2022-11-05T11:26:37.124Z,100902.97
2022-11-05T11:27:39.049Z,100897.56
2022-11-05T11:28:46.087Z,100901.28
2022-11-05T11:29:57.170Z,100891.34
2022-11-05T11:31:09.588Z,100896.56
2022-11-05T11:32:15.575Z,100900.94
2022-11-05T11:33:22.725Z,100894.88
2022-11-05T11:34:28.343Z,100886.78
2022-11-05T11:35:30.475Z,100891.88
2022-11-05T11:36:36.029Z,100898.59
2022-11-05T11:37:42.263Z,100895.91
2022-11-05T11:38:44.691Z,100897.56
2022-11-05T11:39:55.144Z,100881.13
2022-11-05T11:41:26.018Z,100896.84
2022-11-05T11:42:34.077Z,100896.19
2022-11-05T11:43:39.253Z,100905.97
2022-11-05T11:44:44.081Z,100897.22
2022-11-05T11:45:49.649Z,100893.84
2022-11-05T11:46:57.615Z,100900.13
2022-11-05T11:48:04.485Z,100898.44
2022-11-05T11:49:06.749Z,100895.53
2022-11-05T11:50:31.106Z,100888.97
2022-11-05T11:51:40.581Z,100888.09
2022-11-05T11:52:42.338Z,100889.78
2022-11-05T11:53:44.267Z,100889.31
2022-11-05T11:54:46.033Z,100886.78
2022-11-05T11:56:12.182Z,100889.13
2022-11-05T11:57:28.816Z,100883.38
2022-11-05T11:58:36.817Z,100888.09
2022-11-05T12:00:07.277Z,100878.31
2022-11-05T12:01:17.234Z,100885.25
2022-11-05T12:02:21.891Z,100874.81
2022-11-05T12:03:33.102Z,100868.56
2022-11-05T12:04:56.517Z,100873.94
2022-11-05T12:06:33.013Z,100872.91
2022-11-05T12:07:40.346Z,100864.16
2022-11-05T12:08:59.329Z,100862.78
2022-11-05T12:10:08.192Z,100868.84
2022-11-05T12:11:18.616Z,100866.50
2022-11-05T12:12:43.114Z,100867.00
2022-11-05T12:14:02.320Z,100863.66
2022-11-05T12:15:15.576Z,100867.88
2022-11-05T12:16:33.274Z,100859.06
2022-11-05T12:18:02.600Z,100855.34
2022-11-05T12:19:19.423Z,100857.72
2022-11-05T12:20:23.828Z,100854.69
2022-11-05T12:21:53.281Z,100855.56
2022-11-05T12:23:29.748Z,100845.06
2022-11-05T12:24:34.446Z,100843.56
2022-11-05T12:26:02.676Z,100845.41
2022-11-05T12:27:22.377Z,100847.94
2022-11-05T12:29:18.523Z,100848.13
2022-11-05T12:30:22.244Z,100840.50
2022-11-05T12:32:01.174Z,100839.00
2022-11-05T12:33:15.477Z,100836.31
2022-11-05T12:34:37.693Z,100836.66
2022-11-05T12:35:56.438Z,100822.03
2022-11-05T12:37:20.384Z,100836.66
2022-11-05T12:38:44.165Z,100835.81
2022-11-05T12:39:54.301Z,100824.19
2022-11-05T12:41:22.454Z,100823.34
2022-11-05T12:42:30.580Z,100825.00
2022-11-05T12:44:00.784Z,100819.44
2022-11-05T12:45:05.073Z,100825.00
2022-11-05T12:46:25.024Z,100809.19
2022-11-05T12:47:32.640Z,100824.34
2022-11-05T12:49:15.533Z,100820.09
2022-11-05T12:50:24.054Z,100810.69